Time;durP1;ratioP1;P1;durP2;ratioP2;P2;SDS_P1;SDS_P2;PMS_P1;PMS_P2;Temp;Humidity;BMP_temperature;BMP_pressure;BME280_temperature;BME280_humidity;BME280_pressure;Samples;Min_cycle;Max_cycle;Signal;HPM_P1;HPM_P2
2021/06/27 00:01:27;;;;;;;2.50;2.20;;;25.80;40.70;;;;;;4955450;29;20201;-44
2021/06/27 00:03:53;;;;;;;2.58;2.17;;;25.80;40.70;;;;;;4955317;28;20221;-45
2021/06/27 00:06:20;;;;;;;2.40;2.20;;;25.70;40.60;;;;;;4954813;29;20215;-46
2021/06/27 00:08:46;;;;;;;2.20;2.10;;;25.80;41.40;;;;;;4955321;28;20319;-47
2021/06/27 00:11:13;;;;;;;2.30;2.10;;;25.70;40.70;;;;;;4955440;29;20211;-44
2021/06/27 00:13:39;;;;;;;2.35;2.15;;;25.80;40.70;;;;;;4955094;29;20226;-44
2021/06/27 00:16:05;;;;;;;2.10;1.90;;;25.70;40.70;;;;;;4954510;29;20212;-43
2021/06/27 00:18:32;;;;;;;2.38;2.17;;;25.70;40.70;;;;;;4955300;29;20739;-47
2021/06/27 00:20:59;;;;;;;2.30;2.10;;;25.80;40.70;;;;;;4955308;29;20738;-43
2021/06/27 00:23:25;;;;;;;2.40;2.20;;;25.70;40.70;;;;;;4955109;28;20248;-46
2021/06/27 00:25:52;;;;;;;2.47;2.28;;;25.70;40.70;;;;;;4969754;28;20204;-44
2021/06/27 00:28:20;;;;;;;2.70;2.50;;;25.70;40.70;;;;;;4955258;28;20232;-48
2021/06/27 00:30:47;;;;;;;2.63;2.42;;;25.70;40.70;;;;;;4954222;29;20220;-45
2021/06/27 00:33:13;;;;;;;2.35;2.15;;;25.80;40.70;;;;;;4953273;28;20235;-45
2021/06/27 00:35:40;;;;;;;2.00;1.90;;;25.70;40.70;;;;;;4955561;29;20312;-45
2021/06/27 00:38:06;;;;;;;2.67;2.40;;;25.70;40.70;;;;;;4953834;29;20213;-44
2021/06/27 00:40:32;;;;;;;2.30;2.10;;;25.70;40.70;;;;;;4954942;29;20205;-47
2021/06/27 00:42:59;;;;;;;2.83;2.33;;;25.70;40.70;;;;;;4955181;28;20233;-45
2021/06/27 00:45:25;;;;;;;2.15;1.95;;;25.70;40.70;;;;;;4954942;29;20205;-46
2021/06/27 00:47:52;;;;;;;3.17;2.28;;;25.70;40.70;;;;;;4953220;29;20197;-46
2021/06/27 00:50:18;;;;;;;2.47;2.28;;;25.70;40.70;;;;;;4935654;29;20690;-45
2021/06/27 00:52:45;;;;;;;2.13;2.00;;;25.70;40.70;;;;;;4951563;28;20599;-45
2021/06/27 00:55:11;;;;;;;2.25;1.90;;;25.70;40.70;;;;;;4954871;29;20231;-46
2021/06/27 00:57:38;;;;;;;2.10;2.00;;;25.70;40.70;;;;;;4953893;29;20254;-48
2021/06/27 01:00:05;;;;;;;2.38;2.17;;;25.70;40.70;;;;;;4954228;28;20201;-45
2021/06/27 01:02:31;;;;;;;2.75;2.15;;;25.70;40.80;;;;;;4954202;29;20307;-44
2021/06/27 01:04:58;;;;;;;2.55;2.35;;;25.70;40.80;;;;;;4953825;28;20212;-45
2021/06/27 01:07:24;;;;;;;3.70;2.22;;;25.70;40.80;;;;;;4953894;29;20209;-45
2021/06/27 01:09:51;;;;;;;2.50;2.30;;;25.70;40.80;;;;;;4954437;29;20240;-49
2021/06/27 01:12:17;;;;;;;2.13;1.92;;;25.70;40.80;;;;;;4954083;29;20304;-44
2021/06/27 01:14:43;;;;;;;2.58;2.38;;;25.70;40.90;;;;;;4954955;29;20205;-48
2021/06/27 01:17:10;;;;;;;2.38;2.17;;;25.70;40.90;;;;;;4950114;28;20205;-48
2021/06/27 01:19:36;;;;;;;2.20;2.03;;;25.70;40.90;;;;;;4954035;29;20215;-49
2021/06/27 01:22:03;;;;;;;2.10;2.00;;;25.70;40.90;;;;;;4953915;29;20296;-47
2021/06/27 01:24:29;;;;;;;2.35;2.15;;;25.70;40.90;;;;;;4954355;29;20209;-46
2021/06/27 01:26:56;;;;;;;2.25;2.10;;;25.70;40.90;;;;;;4953892;29;20197;-46
2021/06/27 01:29:22;;;;;;;1.90;1.80;;;25.70;40.90;;;;;;4953880;29;20228;-44
2021/06/27 01:31:49;;;;;;;2.25;1.92;;;25.70;40.90;;;;;;4953962;28;20332;-45
2021/06/27 01:34:15;;;;;;;2.22;2.03;;;25.70;40.90;;;;;;4963921;28;20207;-44
2021/06/27 01:36:42;;;;;;;2.40;2.20;;;25.70;41.00;;;;;;4953250;29;20257;-50
2021/06/27 01:39:08;;;;;;;2.42;2.15;;;25.70;41.00;;;;;;4953482;29;20662;-48
2021/06/27 01:41:34;;;;;;;2.08;1.90;;;25.70;41.00;;;;;;4953400;29;20673;-45
2021/06/27 01:44:01;;;;;;;2.65;2.05;;;25.70;41.00;;;;;;4954366;29;20352;-46
2021/06/27 01:46:27;;;;;;;2.70;2.50;;;25.70;41.00;;;;;;4953530;29;20206;-52
2021/06/27 01:48:54;;;;;;;2.30;2.10;;;25.70;41.00;;;;;;4952419;29;20674;-49
2021/06/27 01:51:20;;;;;;;3.38;2.30;;;25.70;41.00;;;;;;4953462;28;20288;-45
2021/06/27 01:53:47;;;;;;;2.25;2.10;;;25.70;41.10;;;;;;4953394;29;20263;-48
2021/06/27 01:56:13;;;;;;;2.13;2.00;;;25.70;41.00;;;;;;4952817;29;20212;-51
2021/06/27 01:58:40;;;;;;;2.55;2.35;;;25.70;41.00;;;;;;4953752;29;20205;-50
2021/06/27 02:01:06;;;;;;;2.58;2.38;;;25.70;41.00;;;;;;4945807;28;20305;-50
2021/06/27 02:03:33;;;;;;;2.10;2.00;;;25.70;41.00;;;;;;4939717;28;20224;-48
2021/06/27 02:05:59;;;;;;;2.30;2.10;;;25.70;41.00;;;;;;4952066;29;20194;-48
2021/06/27 02:08:25;;;;;;;2.20;2.00;;;25.70;41.10;;;;;;4953092;28;20264;-50
2021/06/27 02:10:52;;;;;;;1.90;1.80;;;25.70;41.00;;;;;;4952887;29;20706;-47
2021/06/27 02:13:18;;;;;;;2.05;1.95;;;25.70;41.00;;;;;;4953675;28;20577;-49
2021/06/27 02:15:45;;;;;;;2.20;2.05;;;25.70;41.00;;;;;;4952675;28;20235;-47
2021/06/27 02:18:11;;;;;;;2.40;2.22;;;25.70;41.00;;;;;;4952517;29;20205;-48
2021/06/27 02:20:38;;;;;;;2.53;2.10;;;25.70;41.00;;;;;;4952817;29;20209;-45
2021/06/27 02:23:04;;;;;;;2.35;1.98;;;25.70;41.00;;;;;;4953255;28;20312;-45
2021/06/27 02:25:31;;;;;;;2.10;2.00;;;25.70;41.00;;;;;;4960264;28;20296;-47
2021/06/27 02:27:57;;;;;;;1.70;1.60;;;25.70;41.00;;;;;;4952596;29;20308;-52
2021/06/27 02:30:23;;;;;;;2.35;2.15;;;25.70;41.00;;;;;;4952370;29;20237;-51
2021/06/27 02:32:50;;;;;;;2.20;2.00;;;25.70;41.00;;;;;;4952819;28;20228;-50
2021/06/27 02:35:16;;;;;;;2.97;1.95;;;25.70;41.00;;;;;;4952603;29;20197;-50
2021/06/27 02:37:43;;;;;;;2.13;2.00;;;25.70;41.00;;;;;;4952482;29;20737;-50
2021/06/27 02:40:09;;;;;;;2.35;2.03;;;25.70;41.00;;;;;;4953006;28;20662;-50
2021/06/27 02:42:36;;;;;;;2.58;1.92;;;25.70;41.00;;;;;;4952766;29;20725;-46
2021/06/27 02:45:02;;;;;;;1.80;1.70;;;25.70;41.60;;;;;;4952406;29;20292;-47
2021/06/27 02:47:29;;;;;;;2.38;2.17;;;25.70;40.90;;;;;;4951280;29;20287;-47
2021/06/27 02:49:55;;;;;;;2.30;2.10;;;25.70;41.00;;;;;;4949690;29;20327;-50
2021/06/27 02:52:22;;;;;;;2.85;2.10;;;25.70;40.90;;;;;;4948688;28;20225;-52
2021/06/27 02:54:48;;;;;;;2.10;2.00;;;25.70;41.00;;;;;;4949184;29;20288;-52
2021/06/27 02:57:14;;;;;;;4.18;2.00;;;25.70;40.90;;;;;;4953803;28;20304;-51
2021/06/27 02:59:41;;;;;;;2.22;2.03;;;25.70;40.90;;;;;;4952142;28;20205;-45
2021/06/27 03:02:07;;;;;;;2.35;2.13;;;25.70;40.90;;;;;;4952496;28;20250;-49
2021/06/27 03:04:34;;;;;;;2.20;2.00;;;25.70;40.90;;;;;;4952025;28;20209;-47
2021/06/27 03:07:00;;;;;;;2.40;2.20;;;25.70;40.90;;;;;;4951965;29;20676;-47
2021/06/27 03:09:27;;;;;;;1.80;1.70;;;25.70;40.90;;;;;;4952088;28;20332;-46
2021/06/27 03:11:53;;;;;;;2.42;2.22;;;25.70;40.90;;;;;;4952307;28;20227;-45
2021/06/27 03:14:20;;;;;;;2.55;1.95;;;25.70;41.00;;;;;;4952317;28;20331;-47
2021/06/27 03:16:46;;;;;;;2.25;2.05;;;25.70;41.00;;;;;;4952143;29;20291;-50
2021/06/27 03:19:15;;;;;;;2.47;2.28;;;25.70;41.00;;;;;;4951855;29;20205;-50
2021/06/27 03:21:41;;;;;;;1.92;1.83;;;25.70;41.00;;;;;;4952139;29;20319;-44
2021/06/27 03:24:07;;;;;;;2.40;2.20;;;25.70;41.00;;;;;;4952306;29;20205;-47
2021/06/27 03:26:34;;;;;;;1.92;1.83;;;25.70;41.00;;;;;;4952007;29;20304;-45
2021/06/27 03:29:00;;;;;;;2.78;2.08;;;25.70;41.10;;;;;;4950890;28;20324;-47
2021/06/27 03:31:27;;;;;;;2.10;2.00;;;25.70;41.10;;;;;;4952725;28;20256;-50
2021/06/27 03:33:53;;;;;;;2.10;2.00;;;25.70;41.10;;;;;;4952075;29;20215;-49
2021/06/27 03:36:20;;;;;;;2.20;1.85;;;25.60;41.00;;;;;;4951721;29;20304;-45
2021/06/27 03:38:48;;;;;;;2.80;1.95;;;25.60;41.10;;;;;;4951768;29;20845;-47
2021/06/27 03:41:20;;;;;;;2.25;1.92;;;25.70;41.10;;;;;;4932786;29;20254;-51
2021/06/27 03:43:47;;;;;;;2.28;2.08;;;25.70;41.10;;;;;;4933123;29;20301;-48
2021/06/27 03:46:14;;;;;;;2.10;1.90;;;25.60;41.10;;;;;;4950270;29;20258;-47
2021/06/27 03:48:40;;;;;;;1.90;1.70;;;25.70;41.20;;;;;;4951426;28;20219;-49
2021/06/27 03:51:07;;;;;;;1.92;1.80;;;25.70;41.20;;;;;;4951423;29;20209;-50
2021/06/27 03:53:33;;;;;;;1.90;1.80;;;25.70;41.20;;;;;;4952070;29;20251;-47
2021/06/27 03:55:59;;;;;;;2.30;2.10;;;25.60;41.10;;;;;;4951014;29;20215;-46
2021/06/27 03:58:26;;;;;;;5.07;2.25;;;25.60;41.20;;;;;;4951584;29;20690;-50
2021/06/27 04:00:52;;;;;;;2.00;1.90;;;25.70;41.20;;;;;;4946034;28;20232;-49
2021/06/27 04:03:19;;;;;;;2.05;1.85;;;25.70;41.20;;;;;;4952370;29;20229;-46
2021/06/27 04:05:45;;;;;;;2.15;2.05;;;25.70;41.20;;;;;;4952200;28;20204;-45
2021/06/27 04:08:12;;;;;;;2.47;1.92;;;25.60;41.10;;;;;;4951597;29;20205;-45
2021/06/27 04:10:38;;;;;;;2.13;2.03;;;25.60;41.10;;;;;;4951311;29;20240;-46
2021/06/27 04:13:05;;;;;;;2.20;2.08;;;25.70;41.20;;;;;;4951486;28;20236;-44
2021/06/27 04:15:32;;;;;;;2.30;2.05;;;25.70;41.20;;;;;;4951308;29;20284;-45
2021/06/27 04:17:59;;;;;;;2.00;1.90;;;25.60;41.20;;;;;;4951744;29;20644;-45
2021/06/27 04:20:25;;;;;;;2.30;2.10;;;25.60;41.20;;;;;;4951271;29;20236;-44
2021/06/27 04:22:52;;;;;;;2.25;2.05;;;25.70;41.20;;;;;;4952195;28;20274;-46
2021/06/27 04:25:18;;;;;;;1.80;1.70;;;25.60;41.20;;;;;;4950749;29;20206;-49
2021/06/27 04:27:45;;;;;;;2.00;1.80;;;25.70;41.20;;;;;;4951260;29;20300;-45
2021/06/27 04:30:11;;;;;;;2.15;1.90;;;25.70;41.20;;;;;;4951047;29;20299;-44
2021/06/27 04:32:37;;;;;;;2.38;2.17;;;25.60;41.20;;;;;;4951161;28;20225;-44
2021/06/27 04:35:04;;;;;;;2.10;1.98;;;25.70;41.20;;;;;;4951412;29;20201;-49
2021/06/27 04:37:32;;;;;;;1.95;1.85;;;25.70;41.20;;;;;;4951345;29;20206;-45
2021/06/27 04:39:58;;;;;;;2.55;1.70;;;25.70;41.20;;;;;;4953241;28;20237;-45
2021/06/27 04:42:25;;;;;;;2.45;1.92;;;25.70;41.30;;;;;;4954533;28;20241;-44
2021/06/27 04:44:51;;;;;;;2.03;1.83;;;25.60;41.30;;;;;;4955079;29;20293;-47
2021/06/27 04:47:18;;;;;;;1.92;1.58;;;25.70;41.30;;;;;;4953615;29;20415;-44
2021/06/27 04:49:44;;;;;;;2.10;1.90;;;25.70;41.30;;;;;;4935245;29;20230;-45
2021/06/27 04:52:10;;;;;;;2.03;1.77;;;25.60;41.30;;;;;;4953389;29;20311;-44
2021/06/27 04:54:37;;;;;;;2.30;1.60;;;25.60;41.30;;;;;;4935538;29;20206;-48
2021/06/27 04:57:03;;;;;;;1.80;1.70;;;25.70;41.30;;;;;;4953285;28;20207;-46
2021/06/27 04:59:30;;;;;;;1.92;1.83;;;25.70;41.30;;;;;;4954960;29;20205;-47
2021/06/27 05:01:56;;;;;;;2.30;2.10;;;25.60;41.20;;;;;;4941703;28;20233;-48
2021/06/27 05:04:23;;;;;;;2.10;1.80;;;25.70;41.30;;;;;;4940429;28;20213;-48
2021/06/27 05:06:49;;;;;;;2.00;1.90;;;25.70;41.30;;;;;;4947981;29;20205;-49
2021/06/27 05:09:15;;;;;;;1.83;1.73;;;25.60;41.20;;;;;;4954620;29;20650;-45
2021/06/27 05:11:42;;;;;;;2.08;1.88;;;25.70;41.20;;;;;;4954468;29;20416;-46
2021/06/27 05:14:08;;;;;;;2.20;2.00;;;25.70;41.20;;;;;;4958418;28;20209;-45
2021/06/27 05:16:35;;;;;;;1.90;1.80;;;25.70;41.30;;;;;;4953881;29;20209;-46
2021/06/27 05:19:01;;;;;;;2.40;1.90;;;25.70;41.30;;;;;;4954619;29;20209;-47
2021/06/27 05:21:28;;;;;;;2.45;1.50;;;25.60;41.20;;;;;;4950566;28;20225;-47
2021/06/27 05:23:54;;;;;;;2.03;1.83;;;25.70;41.20;;;;;;4954603;29;20635;-46
2021/06/27 05:26:21;;;;;;;2.33;1.90;;;25.70;41.20;;;;;;4953705;29;20304;-51
2021/06/27 05:28:47;;;;;;;2.00;1.90;;;25.70;41.20;;;;;;4954295;29;20198;-47
2021/06/27 05:31:14;;;;;;;2.08;1.88;;;25.70;41.20;;;;;;4963474;28;20319;-50
2021/06/27 05:33:40;;;;;;;1.80;1.70;;;25.70;41.20;;;;;;4953692;28;20208;-46
2021/06/27 05:36:06;;;;;;;2.10;1.80;;;25.70;41.20;;;;;;4953464;29;20352;-45
2021/06/27 05:38:33;;;;;;;1.80;1.70;;;25.70;41.20;;;;;;4954102;29;20504;-47
2021/06/27 05:40:59;;;;;;;1.70;1.60;;;25.60;41.10;;;;;;4954397;28;20243;-46
2021/06/27 05:43:26;;;;;;;2.15;1.75;;;25.70;41.20;;;;;;4953645;29;20275;-51
2021/06/27 05:45:52;;;;;;;2.33;1.90;;;25.60;41.10;;;;;;4954539;29;20205;-48
2021/06/27 05:48:19;;;;;;;1.88;1.77;;;25.60;41.10;;;;;;4954175;28;20209;-51
2021/06/27 05:50:45;;;;;;;1.45;1.35;;;25.70;41.10;;;;;;4952960;28;20332;-49
2021/06/27 05:53:12;;;;;;;2.38;1.58;;;25.70;41.10;;;;;;4951861;29;20203;-48
2021/06/27 05:55:38;;;;;;;2.10;1.90;;;25.70;41.10;;;;;;4954035;28;20323;-49
2021/06/27 05:58:05;;;;;;;1.75;1.63;;;25.70;41.10;;;;;;4953348;29;20304;-50
2021/06/27 06:00:31;;;;;;;1.55;1.45;;;25.70;41.10;;;;;;4953938;28;20221;-51
2021/06/27 06:02:58;;;;;;;1.65;1.55;;;25.70;41.10;;;;;;4953376;29;20745;-50
2021/06/27 06:05:24;;;;;;;2.05;1.85;;;25.70;41.10;;;;;;4954085;28;20293;-47
2021/06/27 06:07:52;;;;;;;1.75;1.65;;;25.70;41.10;;;;;;4953065;29;20209;-45
2021/06/27 06:10:19;;;;;;;2.15;1.70;;;25.70;41.10;;;;;;4953623;28;20233;-47
2021/06/27 06:12:45;;;;;;;1.80;1.70;;;25.70;41.10;;;;;;4952949;29;20292;-48
2021/06/27 06:15:12;;;;;;;1.80;1.70;;;25.70;41.10;;;;;;4953247;29;20884;-51
2021/06/27 06:17:38;;;;;;;2.08;1.88;;;25.70;41.10;;;;;;4952866;29;20288;-49
2021/06/27 06:20:05;;;;;;;2.03;1.70;;;25.70;41.10;;;;;;4952879;29;20596;-48
2021/06/27 06:22:31;;;;;;;2.10;1.88;;;25.70;41.10;;;;;;4953684;28;20308;-52
2021/06/27 06:24:58;;;;;;;1.83;1.73;;;25.70;41.20;;;;;;4953093;29;20292;-50
2021/06/27 06:27:24;;;;;;;1.75;1.65;;;25.70;41.10;;;;;;4952757;29;20210;-51
2021/06/27 06:29:51;;;;;;;1.70;1.60;;;25.70;41.10;;;;;;4953396;29;20259;-50
2021/06/27 06:32:17;;;;;;;1.75;1.65;;;25.70;41.10;;;;;;4953087;28;20225;-45
2021/06/27 06:34:44;;;;;;;1.80;1.70;;;25.70;41.00;;;;;;4953144;29;20293;-49
2021/06/27 06:37:10;;;;;;;2.25;1.55;;;25.70;41.00;;;;;;4952383;29;20201;-49
2021/06/27 06:39:37;;;;;;;1.80;1.67;;;25.70;41.00;;;;;;4953651;28;20299;-47
2021/06/27 06:42:04;;;;;;;1.60;1.50;;;25.80;41.10;;;;;;4951438;28;20233;-50
2021/06/27 06:44:30;;;;;;;2.15;2.00;;;25.70;41.00;;;;;;4952884;29;20237;-47
2021/06/27 06:46:57;;;;;;;1.70;1.60;;;25.70;41.00;;;;;;4952600;29;20208;-48
2021/06/27 06:49:23;;;;;;;1.65;1.55;;;25.70;41.00;;;;;;4952737;29;20223;-50
2021/06/27 06:51:49;;;;;;;1.65;1.55;;;25.70;41.00;;;;;;4952316;28;20261;-52
2021/06/27 06:54:16;;;;;;;1.70;1.60;;;25.70;41.00;;;;;;4950089;28;20201;-44
2021/06/27 06:56:43;;;;;;;1.85;1.75;;;25.70;41.00;;;;;;4946392;28;20213;-48
2021/06/27 06:59:10;;;;;;;2.17;1.77;;;25.70;41.00;;;;;;4952055;29;20249;-45
2021/06/27 07:01:36;;;;;;;1.90;1.70;;;25.70;41.00;;;;;;4952321;28;20229;-49
2021/06/27 07:04:03;;;;;;;1.70;1.58;;;25.70;41.00;;;;;;4951764;28;20640;-45
2021/06/27 07:06:29;;;;;;;2.25;1.67;;;25.70;40.90;;;;;;4951541;29;20228;-46
2021/06/27 07:08:55;;;;;;;1.88;1.60;;;25.80;41.10;;;;;;4949068;28;20287;-50
2021/06/27 07:11:22;;;;;;;5.72;1.98;;;25.70;41.20;;;;;;4949751;28;20241;-52
2021/06/27 07:13:49;;;;;;;5.03;2.42;;;25.80;42.00;;;;;;4953084;28;20297;-49
2021/06/27 07:16:15;;;;;;;3.03;1.67;;;25.80;41.60;;;;;;4946869;29;20292;-47
2021/06/27 07:18:42;;;;;;;2.00;1.80;;;25.80;41.30;;;;;;4951835;29;20278;-52
2021/06/27 07:21:08;;;;;;;2.15;1.60;;;25.80;41.30;;;;;;4952070;28;20221;-51
2021/06/27 07:23:35;;;;;;;2.35;1.90;;;25.80;41.20;;;;;;4952314;29;20296;-46
2021/06/27 07:26:01;;;;;;;4.15;2.10;;;25.80;41.30;;;;;;4952216;29;20630;-54
2021/06/27 07:28:27;;;;;;;2.53;2.17;;;25.80;41.30;;;;;;4949154;29;20205;-47
2021/06/27 07:30:54;;;;;;;2.90;2.05;;;25.80;42.30;;;;;;4952945;28;20323;-48
2021/06/27 07:33:20;;;;;;;3.67;2.58;;;25.80;41.90;;;;;;4951557;29;20221;-46
2021/06/27 07:35:48;;;;;;;2.33;1.83;;;25.80;42.30;;;;;;4952665;29;20212;-47
2021/06/27 07:38:14;;;;;;;2.70;2.15;;;25.80;42.70;;;;;;4951497;28;20209;-46
2021/06/27 07:40:41;;;;;;;7.32;2.72;;;25.80;42.80;;;;;;4950481;28;20316;-45
2021/06/27 07:43:08;;;;;;;5.95;2.35;;;25.80;43.00;;;;;;4952185;29;20213;-44
2021/06/27 07:45:34;;;;;;;7.30;2.60;;;25.80;43.10;;;;;;4952363;29;20222;-43
2021/06/27 07:48:01;;;;;;;7.35;2.92;;;25.80;43.30;;;;;;4951648;28;20227;-47
2021/06/27 07:50:28;;;;;;;6.78;2.58;;;25.80;42.90;;;;;;4940694;28;20766;-46
2021/06/27 07:52:54;;;;;;;5.45;2.58;;;25.80;41.30;;;;;;4934548;29;20217;-46
2021/06/27 07:55:23;;;;;;;3.67;1.92;;;25.50;41.10;;;;;;4951910;29;20207;-48
2021/06/27 07:57:49;;;;;;;2.92;2.10;;;25.20;39.70;;;;;;4951510;29;20209;-53
2021/06/27 08:00:16;;;;;;;6.32;2.53;;;25.20;39.20;;;;;;4950815;28;20217;-51
2021/06/27 08:02:42;;;;;;;1.85;1.65;;;25.30;38.50;;;;;;4951757;29;20209;-50
2021/06/27 08:05:09;;;;;;;2.45;1.33;;;25.20;37.60;;;;;;4951791;28;20213;-47
2021/06/27 08:07:35;;;;;;;1.92;1.40;;;25.20;37.40;;;;;;4955240;28;20201;-49
2021/06/27 08:10:03;;;;;;;2.90;1.50;;;25.20;37.10;;;;;;4951880;28;20236;-47
2021/06/27 08:12:30;;;;;;;1.40;1.30;;;25.20;36.50;;;;;;4954719;29;20241;-48
2021/06/27 08:14:56;;;;;;;3.75;1.70;;;25.20;36.30;;;;;;4962219;28;20209;-47
2021/06/27 08:17:23;;;;;;;1.67;1.50;;;25.20;36.20;;;;;;4955413;29;20288;-47
2021/06/27 08:19:50;;;;;;;5.03;1.15;;;25.20;36.50;;;;;;4955264;28;20221;-50
2021/06/27 08:22:16;;;;;;;3.88;1.63;;;25.00;35.70;;;;;;4956042;28;20201;-47
2021/06/27 08:24:43;;;;;;;1.67;1.40;;;24.90;37.30;;;;;;4955443;29;20209;-52
2021/06/27 08:27:10;;;;;;;1.35;1.25;;;24.90;37.80;;;;;;4954816;29;20209;-49
2021/06/27 08:29:36;;;;;;;2.10;1.48;;;25.00;38.00;;;;;;4951110;28;20201;-49
2021/06/27 08:32:03;;;;;;;1.40;1.30;;;25.00;36.60;;;;;;4951859;29;20209;-52
2021/06/27 08:34:29;;;;;;;1.30;1.20;;;24.90;37.80;;;;;;4953208;28;20304;-47
2021/06/27 08:36:56;;;;;;;2.30;1.10;;;25.00;37.80;;;;;;4952559;28;20889;-54
2021/06/27 08:39:22;;;;;;;2.05;1.10;;;25.10;37.90;;;;;;4950396;28;20575;-52
2021/06/27 08:41:49;;;;;;;1.15;1.00;;;25.10;38.60;;;;;;4954297;28;20268;-54
2021/06/27 08:44:15;;;;;;;1.40;1.30;;;25.20;39.10;;;;;;4954853;29;20260;-49
2021/06/27 08:46:42;;;;;;;2.88;1.17;;;25.30;39.20;;;;;;4955489;29;20211;-50
2021/06/27 08:49:08;;;;;;;1.30;1.20;;;25.30;39.20;;;;;;4955788;29;20288;-50
2021/06/27 08:51:36;;;;;;;1.45;1.35;;;25.30;39.20;;;;;;4950064;28;20716;-54
2021/06/27 08:54:03;;;;;;;1.73;1.38;;;25.40;39.20;;;;;;4954117;28;20208;-52
2021/06/27 08:56:29;;;;;;;2.25;1.20;;;25.40;39.20;;;;;;4957257;28;20205;-52
2021/06/27 08:58:56;;;;;;;1.10;1.00;;;25.40;39.60;;;;;;4954920;29;20208;-53
2021/06/27 09:01:22;;;;;;;2.17;1.40;;;25.40;39.20;;;;;;4952185;28;20254;-53
2021/06/27 09:03:49;;;;;;;1.25;1.15;;;25.40;39.20;;;;;;4953991;29;20292;-54
2021/06/27 09:06:15;;;;;;;1.75;1.30;;;25.50;39.70;;;;;;4953512;29;20283;-56
2021/06/27 09:08:41;;;;;;;2.42;1.20;;;25.50;39.70;;;;;;4954002;29;20296;-51
2021/06/27 09:11:08;;;;;;;1.65;1.30;;;25.50;39.90;;;;;;4955145;28;20623;-51
2021/06/27 09:13:34;;;;;;;1.40;1.30;;;25.50;40.20;;;;;;4954812;29;20544;-51
2021/06/27 09:16:01;;;;;;;1.35;1.23;;;25.50;39.90;;;;;;4954629;28;20296;-48
2021/06/27 09:18:30;;;;;;;2.03;1.13;;;25.50;40.00;;;;;;4954458;29;20288;-47
2021/06/27 09:20:56;;;;;;;1.88;1.42;;;25.60;40.40;;;;;;4950303;28;20233;-56
2021/06/27 09:23:23;;;;;;;2.67;1.50;;;25.60;40.50;;;;;;4956316;28;20306;-51
2021/06/27 09:25:49;;;;;;;1.58;1.30;;;25.60;40.10;;;;;;4953109;28;20216;-50
2021/06/27 09:28:16;;;;;;;2.10;1.30;;;25.60;39.80;;;;;;4953554;28;20209;-48
2021/06/27 09:30:42;;;;;;;1.50;1.35;;;25.60;39.40;;;;;;4953206;28;20233;-51
2021/06/27 09:33:09;;;;;;;1.67;1.30;;;25.60;39.90;;;;;;4954752;29;20629;-49
2021/06/27 09:35:36;;;;;;;1.65;1.27;;;25.60;40.60;;;;;;4953169;29;20655;-50
2021/06/27 09:38:03;;;;;;;1.33;1.23;;;25.60;40.80;;;;;;4953014;29;20572;-45
2021/06/27 09:40:29;;;;;;;1.63;1.40;;;25.60;40.90;;;;;;4954225;29;20257;-46
2021/06/27 09:42:56;;;;;;;1.20;1.10;;;25.60;41.10;;;;;;4953806;29;20588;-49
2021/06/27 09:45:22;;;;;;;1.27;1.13;;;25.60;40.80;;;;;;4953612;28;20231;-47
2021/06/27 09:47:49;;;;;;;1.40;1.30;;;25.60;40.20;;;;;;4952639;29;20216;-46
2021/06/27 09:50:15;;;;;;;2.05;1.60;;;25.60;40.70;;;;;;4953212;28;20228;-49
2021/06/27 09:52:42;;;;;;;1.40;1.30;;;25.60;40.70;;;;;;4954185;29;20209;-48
2021/06/27 09:55:08;;;;;;;1.50;1.40;;;25.60;40.20;;;;;;4956856;28;20288;-46
2021/06/27 09:57:35;;;;;;;1.60;1.25;;;25.60;40.40;;;;;;4955591;28;20252;-49
2021/06/27 10:00:01;;;;;;;2.05;1.45;;;25.60;40.30;;;;;;4953854;28;20313;-46
2021/06/27 10:02:27;;;;;;;1.50;1.40;;;25.60;40.30;;;;;;4951761;28;20613;-47
2021/06/27 10:04:54;;;;;;;1.40;1.30;;;25.60;40.30;;;;;;4952736;29;20205;-45
2021/06/27 10:07:21;;;;;;;7.60;1.60;;;25.70;40.90;;;;;;4947952;29;20387;-61
2021/06/27 10:09:47;;;;;;;2.30;1.40;;;25.70;40.70;;;;;;4953009;28;20308;-57
2021/06/27 10:12:14;;;;;;;6.50;1.73;;;25.60;43.90;;;;;;4981473;23;20235;-50
2021/06/27 10:14:40;;;;;;;1.73;1.58;;;25.70;48.90;;;;;;4966478;28;20205;-50
2021/06/27 10:17:06;;;;;;;1.27;1.17;;;25.70;46.60;;;;;;4972347;28;20287;-48
2021/06/27 10:19:33;;;;;;;2.80;1.50;;;25.70;45.60;;;;;;4972595;28;20229;-56
2021/06/27 10:22:00;;;;;;;1.10;1.00;;;25.70;42.20;;;;;;4972246;28;20220;-51
2021/06/27 10:24:26;;;;;;;2.40;1.20;;;25.70;44.10;;;;;;4972558;28;20672;-54
2021/06/27 10:26:53;;;;;;;1.45;1.35;;;25.70;49.10;;;;;;4972241;28;20295;-48
2021/06/27 10:29:19;;;;;;;1.45;1.30;;;25.80;55.60;;;;;;4972639;28;20228;-52
2021/06/27 10:31:46;;;;;;;1.42;1.33;;;25.80;54.30;;;;;;4972953;28;20228;-48
2021/06/27 10:34:12;;;;;;;1.38;1.27;;;25.80;54.10;;;;;;4972622;28;20261;-51
2021/06/27 10:36:39;;;;;;;1.88;1.60;;;25.80;53.70;;;;;;4972474;28;20683;-56
2021/06/27 10:39:06;;;;;;;1.58;1.48;;;25.80;53.70;;;;;;4970179;28;20613;-56
2021/06/27 10:41:32;;;;;;;4.35;1.77;;;25.80;53.70;;;;;;4970546;28;20650;-58
2021/06/27 10:43:58;;;;;;;2.75;1.25;;;25.80;40.90;;;;;;4974335;28;20281;-52
2021/06/27 10:46:25;;;;;;;1.45;1.20;;;25.80;40.90;;;;;;4973039;28;20287;-48
2021/06/27 10:48:51;;;;;;;3.80;1.67;;;25.80;40.70;;;;;;4972290;28;20354;-49
2021/06/27 10:51:21;;;;;;;1.85;1.73;;;25.80;40.30;;;;;;4971790;28;20688;-46
2021/06/27 10:53:48;;;;;;;1.88;1.40;;;25.80;40.50;;;;;;4971320;28;20239;-51
2021/06/27 10:56:14;;;;;;;2.75;1.30;;;25.90;40.50;;;;;;4970110;28;20207;-54
2021/06/27 10:58:41;;;;;;;1.40;1.30;;;25.80;40.60;;;;;;4971398;28;20307;-53
2021/06/27 11:01:08;;;;;;;2.17;1.40;;;25.80;40.60;;;;;;4971858;28;20196;-54
2021/06/27 11:03:35;;;;;;;2.25;1.83;;;25.90;40.60;;;;;;4971924;28;20209;-53
2021/06/27 11:06:01;;;;;;;1.65;1.40;;;25.80;40.30;;;;;;4966362;28;20200;-54
2021/06/27 11:08:29;;;;;;;2.15;1.35;;;25.80;39.90;;;;;;4972178;28;20220;-51
2021/06/27 11:10:56;;;;;;;1.45;1.25;;;25.80;40.20;;;;;;4966674;28;20232;-52
2021/06/27 11:13:22;;;;;;;1.60;1.50;;;25.80;40.40;;;;;;4972102;28;20295;-50
2021/06/27 11:15:49;;;;;;;2.78;1.45;;;25.80;40.70;;;;;;4971675;28;20210;-49
2021/06/27 11:18:15;;;;;;;1.58;1.40;;;25.80;40.70;;;;;;4965790;28;20593;-47
2021/06/27 11:20:42;;;;;;;4.22;1.70;;;25.80;40.60;;;;;;4957674;28;20209;-53
2021/06/27 11:23:08;;;;;;;3.78;1.50;;;25.80;40.40;;;;;;4964994;28;20280;-54
2021/06/27 11:25:35;;;;;;;2.97;1.70;;;25.80;41.10;;;;;;4968434;28;20204;-56
2021/06/27 11:28:01;;;;;;;1.70;1.58;;;25.80;40.10;;;;;;4972718;28;20201;-55
2021/06/27 11:30:29;;;;;;;1.65;1.50;;;25.90;40.30;;;;;;4971629;28;20208;-58
2021/06/27 11:32:56;;;;;;;1.85;1.60;;;25.90;40.40;;;;;;4965785;28;20211;-59
2021/06/27 11:35:21;;;;;;;2.50;1.25;;;25.90;40.40;;;;;;4970861;28;20724;-60
2021/06/27 11:37:48;;;;;;;2.42;1.33;;;25.90;40.50;;;;;;4971563;28;20288;-59
2021/06/27 11:40:14;;;;;;;1.77;1.40;;;25.90;40.50;;;;;;4970616;28;20200;-57
2021/06/27 11:42:41;;;;;;;1.77;1.50;;;25.90;40.50;;;;;;4970044;28;20208;-60
2021/06/27 11:45:07;;;;;;;2.90;1.60;;;25.90;40.60;;;;;;4969345;28;20222;-58
2021/06/27 11:47:34;;;;;;;1.67;1.42;;;25.90;40.80;;;;;;4968349;28;20614;-57
2021/06/27 11:50:00;;;;;;;4.50;1.70;;;25.90;40.80;;;;;;4972630;28;20389;-59
2021/06/27 11:52:27;;;;;;;2.50;1.85;;;25.90;41.20;;;;;;4975747;28;20232;-58
2021/06/27 11:54:53;;;;;;;4.15;1.70;;;25.90;41.10;;;;;;4974601;28;20208;-57
2021/06/27 11:57:19;;;;;;;3.03;1.58;;;25.90;41.00;;;;;;4972471;28;20286;-59
2021/06/27 11:59:46;;;;;;;4.53;1.58;;;25.90;41.00;;;;;;4961585;28;20882;-59
2021/06/27 12:02:12;;;;;;;4.70;1.73;;;25.90;40.90;;;;;;4972187;28;20223;-58
2021/06/27 12:04:39;;;;;;;5.97;1.90;;;25.90;41.30;;;;;;4974432;28;20246;-59
2021/06/27 12:07:05;;;;;;;3.22;1.80;;;25.90;41.40;;;;;;4975022;28;20208;-58
2021/06/27 12:09:32;;;;;;;2.05;1.48;;;25.90;41.00;;;;;;4975491;28;20730;-58
2021/06/27 12:11:58;;;;;;;2.75;1.50;;;25.90;41.00;;;;;;4970824;28;20723;-59
2021/06/27 12:14:25;;;;;;;3.15;1.42;;;25.90;40.90;;;;;;4975159;28;20743;-61
2021/06/27 12:16:51;;;;;;;3.03;1.88;;;25.90;40.90;;;;;;4975605;28;20287;-57
2021/06/27 12:19:18;;;;;;;2.35;1.70;;;25.90;40.90;;;;;;4976002;28;20260;-57
2021/06/27 12:21:44;;;;;;;4.25;1.80;;;25.90;40.90;;;;;;4975840;28;20576;-59
2021/06/27 12:24:11;;;;;;;3.60;1.80;;;25.90;40.90;;;;;;4975538;28;20243;-57
2021/06/27 12:26:37;;;;;;;4.60;1.88;;;25.90;40.90;;;;;;4973788;28;20215;-59
2021/06/27 12:29:03;;;;;;;3.28;1.92;;;25.90;40.90;;;;;;4975102;28;20232;-60
2021/06/27 12:31:31;;;;;;;1.92;1.65;;;25.80;40.80;;;;;;4975530;28;20235;-59
2021/06/27 12:33:58;;;;;;;2.20;1.90;;;25.80;40.80;;;;;;4974958;28;20220;-60
2021/06/27 12:36:24;;;;;;;2.20;1.60;;;25.90;40.90;;;;;;4975055;28;20292;-59
2021/06/27 12:38:51;;;;;;;2.50;1.80;;;25.90;40.90;;;;;;4975387;28;20220;-59
2021/06/27 12:41:18;;;;;;;2.15;1.85;;;25.90;40.90;;;;;;4975765;28;20210;-61
2021/06/27 12:43:44;;;;;;;4.55;1.83;;;25.90;40.80;;;;;;4975346;28;20644;-59